createdAt,value
2023-05-20T00:04:25.493Z,17.63
2023-05-20T00:09:27.184Z,17.50
2023-05-20T00:14:28.826Z,18.73
2023-05-20T00:19:30.967Z,16.95
2023-05-20T00:24:32.689Z,18.88
2023-05-20T00:29:34.769Z,19.20
2023-05-20T00:34:36.444Z,20.42
2023-05-20T00:39:38.153Z,20.38
2023-05-20T00:44:39.810Z,21.58
2023-05-20T00:49:41.678Z,21.80
2023-05-20T00:54:43.564Z,19.35
2023-05-20T00:59:45.593Z,22.63
2023-05-20T01:04:47.476Z,27.27
2023-05-20T01:09:49.388Z,20.55
2023-05-20T01:15:07.408Z,18.55
2023-05-20T01:20:10.514Z,22.58
2023-05-20T01:25:12.231Z,21.13
2023-05-20T01:30:14.245Z,22.67
2023-05-20T01:35:17.256Z,22.83
2023-05-20T01:40:19.596Z,23.38
2023-05-20T01:45:21.535Z,26.98
2023-05-20T01:50:23.268Z,30.45
2023-05-20T01:55:25.038Z,25.42
2023-05-20T02:00:26.937Z,26.20
2023-05-20T02:05:28.664Z,24.92
2023-05-20T02:10:30.492Z,25.23
2023-05-20T02:15:32.380Z,25.98
2023-05-20T02:20:37.395Z,27.27
2023-05-20T02:25:39.058Z,29.20
2023-05-20T02:30:40.754Z,27.10
2023-05-20T02:35:42.430Z,36.72
2023-05-20T02:40:45.142Z,30.52
2023-05-20T02:45:47.378Z,31.08
2023-05-20T02:50:49.186Z,28.58
2023-05-20T02:55:50.921Z,34.63
2023-05-20T03:00:53.151Z,26.15
2023-05-20T03:05:55.477Z,27.92
2023-05-20T03:10:58.821Z,29.48
2023-05-20T03:16:01.606Z,27.05
2023-05-20T03:21:04.227Z,30.58
2023-05-20T03:26:06.914Z,26.05
2023-05-20T03:31:08.992Z,24.35
2023-05-20T03:36:10.969Z,25.13
2023-05-20T03:41:12.884Z,21.80
2023-05-20T03:46:14.894Z,23.05
2023-05-20T03:51:16.844Z,26.38
2023-05-20T03:56:21.093Z,24.05
2023-05-20T04:01:25.728Z,23.70
2023-05-20T04:06:27.737Z,23.45
2023-05-20T04:11:31.119Z,24.55
2023-05-20T04:16:32.818Z,25.63
2023-05-20T04:21:34.706Z,29.73
2023-05-20T04:26:36.605Z,25.27
2023-05-20T04:31:38.677Z,26.90
2023-05-20T04:36:40.800Z,24.45
2023-05-20T04:41:42.954Z,24.92
2023-05-20T04:46:46.176Z,25.42
2023-05-20T04:51:50.131Z,24.67
2023-05-20T04:56:53.578Z,26.40
2023-05-20T05:01:55.240Z,22.88
2023-05-20T05:06:58.148Z,24.92
2023-05-20T05:11:59.818Z,26.85
2023-05-20T05:17:01.539Z,30.52
2023-05-20T05:22:03.889Z,28.45
2023-05-20T05:27:06.099Z,26.00
2023-05-20T05:32:08.120Z,27.20
2023-05-20T05:37:10.015Z,29.95
2023-05-20T05:42:12.230Z,26.80
2023-05-20T05:47:14.915Z,31.67
2023-05-20T05:52:16.936Z,32.30
2023-05-20T05:57:18.670Z,23.88
2023-05-20T06:02:22.271Z,26.63
2023-05-20T06:07:24.164Z,26.05
2023-05-20T06:12:26.891Z,26.60
2023-05-20T06:17:28.676Z,27.60
2023-05-20T06:22:30.557Z,27.15
2023-05-20T06:27:32.512Z,27.20
2023-05-20T06:32:34.274Z,28.02
2023-05-20T06:37:36.122Z,29.83
2023-05-20T06:42:37.967Z,26.42
2023-05-20T06:47:40.889Z,33.97
2023-05-20T06:52:43.588Z,28.27
2023-05-20T06:57:46.402Z,31.75
2023-05-20T07:02:49.434Z,30.50
2023-05-20T07:07:51.674Z,27.33
2023-05-20T07:12:53.485Z,25.67
2023-05-20T07:17:55.574Z,25.75
2023-05-20T07:22:57.384Z,25.88
2023-05-20T07:28:06.812Z,23.52
2023-05-20T07:33:08.595Z,24.17
2023-05-20T07:38:12.524Z,23.63
2023-05-20T07:43:14.782Z,24.23
2023-05-20T07:48:16.850Z,22.42
2023-05-20T07:53:18.826Z,21.30
2023-05-20T07:58:20.808Z,21.75
2023-05-20T08:03:23.482Z,20.85
2023-05-20T08:08:36.618Z,21.02
2023-05-20T08:13:44.188Z,18.42
2023-05-20T08:18:46.824Z,19.30
2023-05-20T08:23:48.553Z,18.95
2023-05-20T08:28:50.546Z,20.45
2023-05-20T08:33:53.440Z,21.52
2023-05-20T08:38:55.965Z,21.75
2023-05-20T08:44:00.856Z,23.95
2023-05-20T08:49:03.507Z,21.80
2023-05-20T08:54:05.355Z,20.67
2023-05-20T08:59:07.372Z,19.25
2023-05-20T09:04:09.878Z,22.33
2023-05-20T09:09:15.716Z,17.58
2023-05-20T09:14:17.433Z,19.05
2023-05-20T09:19:24.334Z,18.95
2023-05-20T09:24:27.238Z,21.67
2023-05-20T09:29:33.336Z,17.63
2023-05-20T09:34:35.356Z,18.02
2023-05-20T09:39:48.491Z,16.27
2023-05-20T09:44:51.856Z,17.90
2023-05-20T09:49:53.995Z,20.17
2023-05-20T09:54:57.564Z,22.63
2023-05-20T09:59:59.253Z,18.38
2023-05-20T10:05:10.966Z,18.73
2023-05-20T10:10:33.134Z,21.42
2023-05-20T10:16:08.627Z,17.85
2023-05-20T10:21:19.032Z,17.85
2023-05-20T10:26:22.523Z,16.00
2023-05-20T10:31:25.761Z,19.30
2023-05-20T10:36:29.199Z,16.48
2023-05-20T10:41:30.907Z,17.65
2023-05-20T10:46:48.176Z,21.48
2023-05-20T10:51:55.995Z,15.23
2023-05-20T10:56:58.000Z,16.50
2023-05-20T11:02:02.367Z,14.27
2023-05-20T11:07:04.356Z,21.02
2023-05-20T11:12:06.490Z,15.45
2023-05-20T11:17:08.321Z,14.55
2023-05-20T11:22:10.423Z,14.18
2023-05-20T11:27:12.171Z,15.15
2023-05-20T11:32:13.980Z,17.83
2023-05-20T11:37:16.147Z,17.70
2023-05-20T11:42:17.782Z,15.93
2023-05-20T11:47:27.593Z,15.25
2023-05-20T11:52:29.748Z,16.65
2023-05-20T11:57:31.788Z,13.75
2023-05-20T12:02:33.540Z,12.02
2023-05-20T12:07:36.772Z,17.80
2023-05-20T12:12:38.490Z,15.82
2023-05-20T12:17:48.850Z,16.30
2023-05-20T12:22:50.931Z,13.75
2023-05-20T12:27:52.627Z,15.90
2023-05-20T12:32:54.383Z,16.45
2023-05-20T12:37:56.534Z,22.50
2023-05-20T12:42:59.088Z,12.88
2023-05-20T12:48:00.985Z,13.85
2023-05-20T12:53:02.719Z,17.05
2023-05-20T12:58:04.392Z,14.15
2023-05-20T13:03:06.879Z,15.27
2023-05-20T13:08:10.276Z,13.88
2023-05-20T13:13:13.913Z,16.15
2023-05-20T13:18:16.675Z,16.08
2023-05-20T13:23:18.362Z,13.15
2023-05-20T13:28:20.936Z,12.15
2023-05-20T13:33:24.179Z,13.88
2023-05-20T13:38:25.929Z,14.40
2023-05-20T13:43:28.653Z,14.45
2023-05-20T13:48:30.412Z,17.63
2023-05-20T13:53:32.072Z,12.13
2023-05-20T13:58:33.725Z,11.75
2023-05-20T14:03:37.426Z,11.30
2023-05-20T14:08:39.193Z,13.10
2023-05-20T14:13:41.214Z,12.60
2023-05-20T14:18:42.919Z,16.05
2023-05-20T14:23:45.227Z,14.48
2023-05-20T14:28:47.085Z,18.95
2023-05-20T14:33:49.369Z,15.38
2023-05-20T14:38:51.159Z,14.20
2023-05-20T14:43:52.833Z,15.63
2023-05-20T14:48:54.537Z,15.20
2023-05-20T14:53:56.173Z,14.13
2023-05-20T14:58:57.867Z,13.10
2023-05-20T15:03:59.955Z,16.70
2023-05-20T15:09:02.405Z,16.10
2023-05-20T15:14:04.118Z,13.90
2023-05-20T15:19:05.879Z,15.15
2023-05-20T15:24:07.557Z,16.63
2023-05-20T15:29:09.255Z,16.80
2023-05-20T15:34:11.012Z,17.27
2023-05-20T15:39:13.106Z,18.20
2023-05-20T15:44:14.774Z,15.70
2023-05-20T15:49:16.710Z,19.65
2023-05-20T15:54:20.099Z,16.63
2023-05-20T15:59:22.014Z,15.57
2023-05-20T16:04:24.062Z,16.35
2023-05-20T16:09:25.819Z,15.73
2023-05-20T16:14:27.473Z,16.42
2023-05-20T16:19:29.299Z,18.17
2023-05-20T16:24:31.254Z,14.93
2023-05-20T16:29:33.232Z,16.70
2023-05-20T16:34:34.890Z,16.23
2023-05-20T16:39:36.598Z,20.92
2023-05-20T16:44:39.269Z,20.65
2023-05-20T16:49:40.911Z,23.33
2023-05-20T16:54:42.608Z,18.58
2023-05-20T16:59:44.937Z,21.42
2023-05-20T17:04:46.824Z,18.17
2023-05-20T17:09:48.519Z,16.45
2023-05-20T17:14:50.170Z,18.23
2023-05-20T17:19:51.839Z,17.73
2023-05-20T17:24:53.499Z,18.40
2023-05-20T17:29:55.278Z,17.05
2023-05-20T17:34:57.013Z,18.50
2023-05-20T17:39:58.689Z,17.17
2023-05-20T17:45:00.491Z,18.65
2023-05-20T17:50:02.846Z,20.52
2023-05-20T17:55:05.000Z,15.25
2023-05-20T18:00:10.224Z,16.58
2023-05-20T18:05:12.913Z,17.88
2023-05-20T18:10:14.578Z,13.73
2023-05-20T18:15:18.379Z,13.05
2023-05-20T18:20:20.132Z,15.38
2023-05-20T18:25:21.773Z,14.02
2023-05-20T18:30:23.550Z,16.85
2023-05-20T18:35:25.211Z,22.55
2023-05-20T18:40:28.213Z,13.90
2023-05-20T18:45:30.019Z,13.25
2023-05-20T18:50:31.993Z,17.65
2023-05-20T18:55:33.742Z,14.32
2023-05-20T19:00:35.611Z,16.52
2023-05-20T19:05:37.811Z,13.40
2023-05-20T19:10:39.751Z,15.63
2023-05-20T19:15:41.458Z,15.52
2023-05-20T19:20:43.133Z,18.33
2023-05-20T19:25:45.043Z,18.92
2023-05-20T19:30:47.213Z,16.42
2023-05-20T19:35:48.992Z,14.65
2023-05-20T19:40:50.658Z,16.17
2023-05-20T19:45:52.347Z,14.18
2023-05-20T19:50:54.015Z,20.55
2023-05-20T19:55:55.671Z,19.23
2023-05-20T20:00:57.356Z,15.27
2023-05-20T20:05:59.082Z,17.15
2023-05-20T20:11:00.826Z,17.48
2023-05-20T20:16:02.965Z,20.52
2023-05-20T20:21:05.697Z,18.45
2023-05-20T20:26:07.938Z,20.55
2023-05-20T20:31:09.689Z,20.65
2023-05-20T20:36:11.367Z,19.98
2023-05-20T20:41:16.146Z,21.35
2023-05-20T20:46:17.955Z,19.77
2023-05-20T20:51:19.887Z,17.95
2023-05-20T20:56:21.548Z,19.67
2023-05-20T21:01:23.578Z,19.10
2023-05-20T21:06:25.311Z,18.80
2023-05-20T21:11:28.059Z,20.65
2023-05-20T21:16:29.772Z,21.08
2023-05-20T21:21:31.847Z,21.63
2023-05-20T21:26:33.663Z,18.20
2023-05-20T21:31:35.413Z,16.77
2023-05-20T21:36:37.149Z,20.60
2023-05-20T21:41:38.795Z,19.20
2023-05-20T21:46:40.493Z,19.48
2023-05-20T21:51:42.243Z,24.50
2023-05-20T21:56:43.935Z,25.30
2023-05-20T22:01:45.743Z,19.70
2023-05-20T22:06:47.665Z,22.35
2023-05-20T22:11:49.792Z,25.60
2023-05-20T22:16:51.516Z,23.55
2023-05-20T22:21:53.210Z,26.50
2023-05-20T22:26:54.853Z,24.42
2023-05-20T22:31:56.611Z,21.58
2023-05-20T22:36:58.363Z,24.13
2023-05-20T22:42:00.036Z,25.45
2023-05-20T22:47:01.705Z,28.83
2023-05-20T22:52:03.530Z,26.60
2023-05-20T22:57:05.465Z,24.30
2023-05-20T23:02:07.847Z,30.60
2023-05-20T23:07:09.597Z,27.02
2023-05-20T23:12:11.308Z,24.05
2023-05-20T23:17:12.996Z,27.75
2023-05-20T23:22:15.014Z,31.33
2023-05-20T23:27:16.686Z,34.83
2023-05-20T23:32:18.346Z,29.10
2023-05-20T23:37:20.238Z,30.25
2023-05-20T23:42:21.889Z,26.08
2023-05-20T23:47:26.085Z,30.95
2023-05-20T23:52:28.323Z,30.17
2023-05-20T23:57:29.976Z,31.00
